sensor_id;sensor_type;location;lat;lon;timestamp;pressure;altitude;pressure_sealevel;temperature;humidity
12913;BME280;6524;51.368;11.984;2023-04-01T00:02:35;98472.38;;;8.97;61.54
12913;BME280;6524;51.368;11.984;2023-04-01T00:07:42;98472.22;;;8.88;61.95
12913;BME280;6524;51.368;11.984;2023-04-01T00:12:43;98476.06;;;8.65;61.97
12913;BME280;6524;51.368;11.984;2023-04-01T00:17:43;98475.63;;;8.60;62.93
12913;BME280;6524;51.368;11.984;2023-04-01T00:22:43;98471.34;;;8.59;62.86
12913;BME280;6524;51.368;11.984;2023-04-01T00:27:44;98469.97;;;8.74;62.62
12913;BME280;6524;51.368;11.984;2023-04-01T00:32:44;98472.94;;;8.40;63.56
12913;BME280;6524;51.368;11.984;2023-04-01T04:04:33;98497.38;;;8.62;60.26
12913;BME280;6524;51.368;11.984;2023-04-01T04:09:33;98501.06;;;8.90;60.01
12913;BME280;6524;51.368;11.984;2023-04-01T04:14:34;98490.31;;;8.72;60.21
12913;BME280;6524;51.368;11.984;2023-04-01T04:19:34;98502.50;;;8.23;61.84
12913;BME280;6524;51.368;11.984;2023-04-01T04:24:35;98506.47;;;8.08;61.88
12913;BME280;6524;51.368;11.984;2023-04-01T04:29:36;98510.88;;;8.48;60.38
12913;BME280;6524;51.368;11.984;2023-04-01T04:34:36;98511.28;;;8.33;61.05
12913;BME280;6524;51.368;11.984;2023-04-01T04:39:36;98515.00;;;8.31;60.59
12913;BME280;6524;51.368;11.984;2023-04-01T04:44:37;98524.53;;;8.32;60.84
12913;BME280;6524;51.368;11.984;2023-04-01T04:49:37;98526.63;;;8.69;59.37
12913;BME280;6524;51.368;11.984;2023-04-01T04:54:37;98522.56;;;8.55;59.81
12913;BME280;6524;51.368;11.984;2023-04-01T04:59:38;98533.53;;;8.29;60.53
12913;BME280;6524;51.368;11.984;2023-04-01T05:04:38;98531.31;;;8.65;59.88
12913;BME280;6524;51.368;11.984;2023-04-01T05:09:39;98537.94;;;9.00;58.57
12913;BME280;6524;51.368;11.984;2023-04-01T05:14:39;98538.66;;;9.11;58.65
12913;BME280;6524;51.368;11.984;2023-04-01T05:19:40;98544.75;;;9.12;58.29
12913;BME280;6524;51.368;11.984;2023-04-01T05:24:40;98548.38;;;9.50;57.75
12913;BME280;6524;51.368;11.984;2023-04-01T05:29:40;98542.13;;;9.41;57.63
12913;BME280;6524;51.368;11.984;2023-04-01T05:34:41;98543.22;;;9.39;57.84
12913;BME280;6524;51.368;11.984;2023-04-01T05:39:41;98552.09;;;9.28;57.81
12913;BME280;6524;51.368;11.984;2023-04-01T05:44:41;98552.75;;;9.01;58.16
12913;BME280;6524;51.368;11.984;2023-04-01T05:49:42;98558.75;;;9.32;57.73
12913;BME280;6524;51.368;11.984;2023-04-01T05:54:42;98556.25;;;9.11;58.30
12913;BME280;6524;51.368;11.984;2023-04-01T05:59:42;98558.75;;;9.32;58.37
12913;BME280;6524;51.368;11.984;2023-04-01T06:04:43;98565.25;;;8.99;58.80
12913;BME280;6524;51.368;11.984;2023-04-01T06:09:44;98564.44;;;9.08;58.63
12913;BME280;6524;51.368;11.984;2023-04-01T06:14:58;98569.63;;;8.88;59.04
12913;BME280;6524;51.368;11.984;2023-04-01T06:30:36;98579.91;;;8.61;59.52
12913;BME280;6524;51.368;11.984;2023-04-01T06:51:47;98586.03;;;9.02;58.14
12913;BME280;6524;51.368;11.984;2023-04-01T06:56:59;98578.19;;;9.41;57.90
12913;BME280;6524;51.368;11.984;2023-04-01T07:02:21;98586.34;;;9.47;57.76
12913;BME280;6524;51.368;11.984;2023-04-01T07:07:33;98586.09;;;9.60;57.39
12913;BME280;6524;51.368;11.984;2023-04-01T07:12:44;98584.00;;;9.64;57.62
12913;BME280;6524;51.368;11.984;2023-04-01T07:17:52;98592.56;;;9.17;58.61
12913;BME280;6524;51.368;11.984;2023-04-01T07:22:58;98596.50;;;9.91;56.76
12913;BME280;6524;51.368;11.984;2023-04-01T07:28:04;98592.25;;;8.70;58.47
12913;BME280;6524;51.368;11.984;2023-04-01T07:33:15;98596.34;;;9.63;56.99
12913;BME280;6524;51.368;11.984;2023-04-01T07:58:55;98622.47;;;10.05;60.51
12913;BME280;6524;51.368;11.984;2023-04-01T08:14:55;98628.59;;;10.53;58.10
12913;BME280;6524;51.368;11.984;2023-04-01T08:25:29;98631.31;;;11.53;55.08
12913;BME280;6524;51.368;11.984;2023-04-01T08:30:40;98635.41;;;12.01;52.56
12913;BME280;6524;51.368;11.984;2023-04-01T08:35:51;98641.19;;;12.23;51.89
12913;BME280;6524;51.368;11.984;2023-04-01T08:41:21;98640.66;;;12.63;50.38
12913;BME280;6524;51.368;11.984;2023-04-01T08:47:06;98653.19;;;12.53;49.71
12913;BME280;6524;51.368;11.984;2023-04-01T08:58:02;98644.38;;;12.08;51.80
12913;BME280;6524;51.368;11.984;2023-04-01T09:08:28;98643.53;;;11.54;51.23
12913;BME280;6524;51.368;11.984;2023-04-01T09:18:59;98646.81;;;11.21;53.19
12913;BME280;6524;51.368;11.984;2023-04-01T09:50:32;98652.97;;;11.11;53.28
12913;BME280;6524;51.368;11.984;2023-04-01T10:48:13;98678.03;;;15.64;44.81
12913;BME280;6524;51.368;11.984;2023-04-01T10:53:59;98682.69;;;15.70;44.99
12913;BME280;6524;51.368;11.984;2023-04-01T11:37:06;98688.09;;;11.77;50.52
12913;BME280;6524;51.368;11.984;2023-04-01T11:42:25;98692.91;;;11.36;52.04
12913;BME280;6524;51.368;11.984;2023-04-01T11:47:48;98701.91;;;10.78;53.83
12913;BME280;6524;51.368;11.984;2023-04-01T11:58:28;98705.56;;;11.60;52.25
12913;BME280;6524;51.368;11.984;2023-04-01T12:08:55;98713.69;;;11.76;51.99
12913;BME280;6524;51.368;11.984;2023-04-01T12:14:22;98713.16;;;11.45;53.25
12913;BME280;6524;51.368;11.984;2023-04-01T12:19:41;98719.66;;;11.23;53.26
12913;BME280;6524;51.368;11.984;2023-04-01T12:24:45;98718.06;;;11.12;53.04
12913;BME280;6524;51.368;11.984;2023-04-01T12:45:33;98732.25;;;11.39;52.49
12913;BME280;6524;51.368;11.984;2023-04-01T12:55:44;98744.69;;;11.29;53.12
12913;BME280;6524;51.368;11.984;2023-04-01T13:16:40;98756.53;;;10.48;57.74
12913;BME280;6524;51.368;11.984;2023-04-01T13:27:42;98756.63;;;10.86;56.73
12913;BME280;6524;51.368;11.984;2023-04-01T13:32:52;98763.53;;;11.06;57.13
12913;BME280;6524;51.368;11.984;2023-04-01T13:43:12;98767.22;;;11.88;56.24
12913;BME280;6524;51.368;11.984;2023-04-01T13:48:25;98773.72;;;12.11;56.10
12913;BME280;6524;51.368;11.984;2023-04-01T13:59:10;98767.56;;;11.10;58.17
12913;BME280;6524;51.368;11.984;2023-04-01T14:04:42;98771.72;;;11.13;58.37
12913;BME280;6524;51.368;11.984;2023-04-01T14:31:27;98787.53;;;10.76;58.98
12913;BME280;6524;51.368;11.984;2023-04-01T14:47:08;98785.94;;;10.92;61.54
12913;BME280;6524;51.368;11.984;2023-04-01T14:52:16;98794.56;;;11.04;61.74
12913;BME280;6524;51.368;11.984;2023-04-01T14:57:28;98804.59;;;10.33;61.59
12913;BME280;6524;51.368;11.984;2023-04-01T15:02:45;98807.00;;;10.75;61.34
12913;BME280;6524;51.368;11.984;2023-04-01T15:24:35;98815.91;;;11.21;61.33
12913;BME280;6524;51.368;11.984;2023-04-01T15:35:03;98826.16;;;10.96;62.61
12913;BME280;6524;51.368;11.984;2023-04-01T15:45:37;98840.63;;;10.72;62.60
12913;BME280;6524;51.368;11.984;2023-04-01T15:50:48;98844.06;;;10.63;62.71
12913;BME280;6524;51.368;11.984;2023-04-01T15:55:59;98850.41;;;10.12;64.43
12913;BME280;6524;51.368;11.984;2023-04-01T16:01:18;98847.94;;;10.59;62.83
12913;BME280;6524;51.368;11.984;2023-04-01T16:06:33;98862.91;;;10.20;63.58
12913;BME280;6524;51.368;11.984;2023-04-01T16:11:48;98878.47;;;10.23;62.33
12913;BME280;6524;51.368;11.984;2023-04-01T16:17:08;98885.72;;;10.50;60.61
12913;BME280;6524;51.368;11.984;2023-04-01T16:22:33;98894.63;;;10.49;61.89
12913;BME280;6524;51.368;11.984;2023-04-01T16:27:49;98895.97;;;10.24;64.05
12913;BME280;6524;51.368;11.984;2023-04-01T16:33:02;98887.53;;;9.90;64.57
12913;BME280;6524;51.368;11.984;2023-04-01T16:38:14;98892.41;;;9.73;66.21
12913;BME280;6524;51.368;11.984;2023-04-01T16:43:44;98900.31;;;9.73;67.01
12913;BME280;6524;51.368;11.984;2023-04-01T16:49:03;98909.56;;;9.58;67.95
12913;BME280;6524;51.368;11.984;2023-04-01T16:59:58;98919.50;;;9.54;68.81
12913;BME280;6524;51.368;11.984;2023-04-01T17:05:08;98929.00;;;9.67;68.83
12913;BME280;6524;51.368;11.984;2023-04-01T17:15:32;98934.97;;;9.59;69.63
12913;BME280;6524;51.368;11.984;2023-04-01T17:20:47;98947.75;;;9.43;70.14
12913;BME280;6524;51.368;11.984;2023-04-01T17:26:02;98957.38;;;9.32;71.01
12913;BME280;6524;51.368;11.984;2023-04-01T17:36:39;98974.69;;;9.14;71.49
12913;BME280;6524;51.368;11.984;2023-04-01T17:41:59;98980.91;;;9.24;71.02
12913;BME280;6524;51.368;11.984;2023-04-01T17:57:34;99004.66;;;9.13;71.58
12913;BME280;6524;51.368;11.984;2023-04-01T18:08:12;99025.03;;;9.11;70.03
12913;BME280;6524;51.368;11.984;2023-04-01T18:14:14;99033.16;;;9.08;70.38
12913;BME280;6524;51.368;11.984;2023-04-01T18:39:47;99072.94;;;8.94;70.76
12913;BME280;6524;51.368;11.984;2023-04-01T18:55:24;99096.38;;;8.85;70.96
12913;BME280;6524;51.368;11.984;2023-04-01T19:00:38;99096.25;;;9.09;69.85
12913;BME280;6524;51.368;11.984;2023-04-01T19:05:42;99111.84;;;8.79;70.92
12913;BME280;6524;51.368;11.984;2023-04-01T19:10:52;99125.56;;;8.60;71.43
12913;BME280;6524;51.368;11.984;2023-04-01T19:16:12;99130.38;;;8.55;72.28
12913;BME280;6524;51.368;11.984;2023-04-01T19:21:29;99137.28;;;8.56;72.17
12913;BME280;6524;51.368;11.984;2023-04-01T19:26:44;99139.69;;;8.70;70.89
12913;BME280;6524;51.368;11.984;2023-04-01T19:32:07;99149.84;;;8.52;70.60
12913;BME280;6524;51.368;11.984;2023-04-01T19:37:22;99155.13;;;8.06;71.52
12913;BME280;6524;51.368;11.984;2023-04-01T19:48:26;99176.97;;;8.30;70.37
12913;BME280;6524;51.368;11.984;2023-04-01T19:59:19;99199.56;;;7.98;70.32
12913;BME280;6524;51.368;11.984;2023-04-01T20:04:36;99202.59;;;7.80;69.68
12913;BME280;6524;51.368;11.984;2023-04-01T20:15:30;99228.44;;;7.86;69.46
12913;BME280;6524;51.368;11.984;2023-04-01T20:20:29;99246.28;;;7.70;69.28
12913;BME280;6524;51.368;11.984;2023-04-01T20:25:39;99256.66;;;7.59;68.51
12913;BME280;6524;51.368;11.984;2023-04-01T20:41:37;99279.41;;;7.34;69.75
12913;BME280;6524;51.368;11.984;2023-04-01T20:51:31;99293.31;;;7.23;69.17
12913;BME280;6524;51.368;11.984;2023-04-01T21:07:40;99324.25;;;6.80;70.54
12913;BME280;6524;51.368;11.984;2023-04-01T21:12:50;99330.47;;;7.04;69.21
12913;BME280;6524;51.368;11.984;2023-04-01T21:28:34;99357.75;;;6.89;68.33
12913;BME280;6524;51.368;11.984;2023-04-01T21:33:45;99360.91;;;6.94;67.73
12913;BME280;6524;51.368;11.984;2023-04-01T21:39:18;99375.53;;;6.58;68.37
12913;BME280;6524;51.368;11.984;2023-04-01T21:49:55;99394.28;;;6.38;68.69
12913;BME280;6524;51.368;11.984;2023-04-01T21:56:20;99401.69;;;6.04;68.48
12913;BME280;6524;51.368;11.984;2023-04-01T22:06:48;99427.81;;;5.92;68.40
12913;BME280;6524;51.368;11.984;2023-04-01T22:12:02;99431.25;;;6.06;67.32
12913;BME280;6524;51.368;11.984;2023-04-01T22:17:08;99438.13;;;5.95;68.22
12913;BME280;6524;51.368;11.984;2023-04-01T22:22:45;99454.50;;;5.98;67.23
12913;BME280;6524;51.368;11.984;2023-04-01T22:27:56;99455.78;;;5.91;66.89
12913;BME280;6524;51.368;11.984;2023-04-01T22:44:00;99499.75;;;5.72;66.89
12913;BME280;6524;51.368;11.984;2023-04-01T23:00:00;99528.66;;;5.26;67.19
12913;BME280;6524;51.368;11.984;2023-04-01T23:05:05;99528.47;;;4.97;67.30
12913;BME280;6524;51.368;11.984;2023-04-01T23:10:17;99529.16;;;5.16;66.46
12913;BME280;6524;51.368;11.984;2023-04-01T23:15:20;99541.22;;;5.03;66.58
12913;BME280;6524;51.368;11.984;2023-04-01T23:20:48;99552.28;;;5.08;66.56
12913;BME280;6524;51.368;11.984;2023-04-01T23:30:51;99578.44;;;5.08;66.82
12913;BME280;6524;51.368;11.984;2023-04-01T23:35:57;99591.59;;;4.75;67.48
12913;BME280;6524;51.368;11.984;2023-04-01T23:41:06;99598.38;;;4.95;66.74
12913;BME280;6524;51.368;11.984;2023-04-01T23:46:12;99607.31;;;4.91;66.64
12913;BME280;6524;51.368;11.984;2023-04-01T23:51:18;99617.44;;;4.97;66.97
12913;BME280;6524;51.368;11.984;2023-04-01T23:56:20;99627.22;;;4.93;67.00
